sensor_id;sensor_type;location;lat;lon;timestamp;P1;durP1;ratioP1;P2;durP2;ratioP2
37805;SDS011;25082;50.870;0.022;2023-02-01T00:01:17;11.45;;;3.97;;
37805;SDS011;25082;50.870;0.022;2023-02-01T00:03:43;9.63;;;4.13;;
37805;SDS011;25082;50.870;0.022;2023-02-01T00:06:09;13.00;;;3.60;;
37805;SDS011;25082;50.870;0.022;2023-02-01T00:08:36;9.95;;;3.40;;
37805;SDS011;25082;50.870;0.022;2023-02-01T00:11:05;9.93;;;3.88;;
37805;SDS011;25082;50.870;0.022;2023-02-01T00:13:33;7.50;;;3.30;;
37805;SDS011;25082;50.870;0.022;2023-02-01T00:16:07;11.48;;;4.15;;
37805;SDS011;25082;50.870;0.022;2023-02-01T00:18:41;11.00;;;4.05;;
37805;SDS011;25082;50.870;0.022;2023-02-01T00:21:09;8.52;;;3.38;;
37805;SDS011;25082;50.870;0.022;2023-02-01T00:23:36;11.48;;;3.55;;
37805;SDS011;25082;50.870;0.022;2023-02-01T00:26:03;9.05;;;3.33;;
37805;SDS011;25082;50.870;0.022;2023-02-01T00:28:30;11.50;;;4.03;;
37805;SDS011;25082;50.870;0.022;2023-02-01T00:30:59;8.77;;;3.20;;
37805;SDS011;25082;50.870;0.022;2023-02-01T00:33:27;13.25;;;4.18;;
37805;SDS011;25082;50.870;0.022;2023-02-01T00:35:57;10.57;;;3.95;;
37805;SDS011;25082;50.870;0.022;2023-02-01T00:38:24;12.75;;;3.72;;
37805;SDS011;25082;50.870;0.022;2023-02-01T00:40:50;10.40;;;3.70;;
37805;SDS011;25082;50.870;0.022;2023-02-01T00:43:16;11.07;;;3.80;;
37805;SDS011;25082;50.870;0.022;2023-02-01T00:45:41;13.65;;;4.03;;
37805;SDS011;25082;50.870;0.022;2023-02-01T00:48:07;10.77;;;3.85;;
37805;SDS011;25082;50.870;0.022;2023-02-01T00:50:33;11.18;;;3.70;;
37805;SDS011;25082;50.870;0.022;2023-02-01T00:52:58;8.70;;;3.17;;
37805;SDS011;25082;50.870;0.022;2023-02-01T00:55:24;8.93;;;3.38;;
37805;SDS011;25082;50.870;0.022;2023-02-01T00:57:50;8.45;;;3.65;;
37805;SDS011;25082;50.870;0.022;2023-02-01T01:00:16;9.43;;;3.55;;
37805;SDS011;25082;50.870;0.022;2023-02-01T01:02:42;10.80;;;4.07;;
37805;SDS011;25082;50.870;0.022;2023-02-01T01:05:08;10.68;;;3.25;;
37805;SDS011;25082;50.870;0.022;2023-02-01T01:07:33;9.75;;;3.63;;
37805;SDS011;25082;50.870;0.022;2023-02-01T01:09:59;7.82;;;3.53;;
37805;SDS011;25082;50.870;0.022;2023-02-01T01:12:25;9.40;;;3.22;;
37805;SDS011;25082;50.870;0.022;2023-02-01T01:14:51;10.55;;;3.80;;
37805;SDS011;25082;50.870;0.022;2023-02-01T01:17:16;11.38;;;3.95;;
37805;SDS011;25082;50.870;0.022;2023-02-01T01:19:42;10.40;;;3.65;;
37805;SDS011;25082;50.870;0.022;2023-02-01T01:22:11;8.98;;;3.45;;
37805;SDS011;25082;50.870;0.022;2023-02-01T01:24:40;10.45;;;3.50;;
37805;SDS011;25082;50.870;0.022;2023-02-01T01:27:05;8.00;;;3.00;;
37805;SDS011;25082;50.870;0.022;2023-02-01T01:29:31;9.07;;;3.92;;
37805;SDS011;25082;50.870;0.022;2023-02-01T01:31:57;10.80;;;3.35;;
37805;SDS011;25082;50.870;0.022;2023-02-01T01:34:22;11.50;;;4.07;;
37805;SDS011;25082;50.870;0.022;2023-02-01T01:36:48;7.35;;;2.75;;
37805;SDS011;25082;50.870;0.022;2023-02-01T01:39:14;13.65;;;3.55;;
37805;SDS011;25082;50.870;0.022;2023-02-01T01:41:40;10.13;;;3.47;;
37805;SDS011;25082;50.870;0.022;2023-02-01T01:44:06;10.77;;;3.35;;
37805;SDS011;25082;50.870;0.022;2023-02-01T01:46:52;9.18;;;2.92;;
37805;SDS011;25082;50.870;0.022;2023-02-01T01:49:19;10.85;;;3.47;;
37805;SDS011;25082;50.870;0.022;2023-02-01T01:51:52;8.23;;;3.53;;
37805;SDS011;25082;50.870;0.022;2023-02-01T01:54:22;8.13;;;2.88;;
37805;SDS011;25082;50.870;0.022;2023-02-01T01:56:54;10.73;;;3.22;;
37805;SDS011;25082;50.870;0.022;2023-02-01T01:59:24;9.95;;;3.63;;
37805;SDS011;25082;50.870;0.022;2023-02-01T02:01:50;9.43;;;3.45;;
37805;SDS011;25082;50.870;0.022;2023-02-01T02:04:17;8.13;;;3.30;;
37805;SDS011;25082;50.870;0.022;2023-02-01T02:07:02;11.63;;;3.83;;
37805;SDS011;25082;50.870;0.022;2023-02-01T02:09:31;10.82;;;3.72;;
37805;SDS011;25082;50.870;0.022;2023-02-01T02:11:57;10.20;;;3.22;;
37805;SDS011;25082;50.870;0.022;2023-02-01T02:14:23;10.48;;;3.35;;
37805;SDS011;25082;50.870;0.022;2023-02-01T02:17:03;12.10;;;3.15;;
37805;SDS011;25082;50.870;0.022;2023-02-01T02:22:44;8.85;;;2.97;;
37805;SDS011;25082;50.870;0.022;2023-02-01T02:39:03;9.85;;;3.30;;
37805;SDS011;25082;50.870;0.022;2023-02-01T02:42:00;8.15;;;2.95;;
37805;SDS011;25082;50.870;0.022;2023-02-01T02:50:51;11.50;;;3.13;;
37805;SDS011;25082;50.870;0.022;2023-02-01T02:53:47;9.32;;;3.13;;
37805;SDS011;25082;50.870;0.022;2023-02-01T02:56:37;7.40;;;2.75;;
37805;SDS011;25082;50.870;0.022;2023-02-01T02:59:24;11.32;;;2.95;;
37805;SDS011;25082;50.870;0.022;2023-02-01T03:02:10;7.05;;;2.60;;
37805;SDS011;25082;50.870;0.022;2023-02-01T03:04:56;9.80;;;3.53;;
37805;SDS011;25082;50.870;0.022;2023-02-01T03:10:10;8.50;;;3.28;;
37805;SDS011;25082;50.870;0.022;2023-02-01T03:12:51;8.75;;;3.15;;
37805;SDS011;25082;50.870;0.022;2023-02-01T03:18:30;8.88;;;2.60;;
37805;SDS011;25082;50.870;0.022;2023-02-01T03:21:04;10.52;;;3.13;;
37805;SDS011;25082;50.870;0.022;2023-02-01T03:23:35;8.27;;;2.78;;
37805;SDS011;25082;50.870;0.022;2023-02-01T03:26:03;10.40;;;3.03;;
37805;SDS011;25082;50.870;0.022;2023-02-01T03:28:33;10.25;;;2.40;;
37805;SDS011;25082;50.870;0.022;2023-02-01T03:31:01;6.85;;;2.13;;
37805;SDS011;25082;50.870;0.022;2023-02-01T03:33:27;9.35;;;2.72;;
37805;SDS011;25082;50.870;0.022;2023-02-01T03:41:18;9.57;;;3.35;;
37805;SDS011;25082;50.870;0.022;2023-02-01T03:43:52;7.00;;;2.58;;
37805;SDS011;25082;50.870;0.022;2023-02-01T03:46:51;8.63;;;2.58;;
37805;SDS011;25082;50.870;0.022;2023-02-01T03:49:28;8.50;;;2.72;;
37805;SDS011;25082;50.870;0.022;2023-02-01T03:52:03;10.60;;;3.33;;
37805;SDS011;25082;50.870;0.022;2023-02-01T03:54:33;8.18;;;2.80;;
37805;SDS011;25082;50.870;0.022;2023-02-01T03:57:01;8.55;;;2.72;;
37805;SDS011;25082;50.870;0.022;2023-02-01T03:59:30;7.20;;;3.00;;
37805;SDS011;25082;50.870;0.022;2023-02-01T04:01:55;9.73;;;2.78;;
37805;SDS011;25082;50.870;0.022;2023-02-01T04:04:21;8.73;;;3.20;;
37805;SDS011;25082;50.870;0.022;2023-02-01T04:06:48;8.68;;;3.05;;
37805;SDS011;25082;50.870;0.022;2023-02-01T04:09:14;7.15;;;2.40;;
37805;SDS011;25082;50.870;0.022;2023-02-01T04:11:40;6.38;;;2.42;;
37805;SDS011;25082;50.870;0.022;2023-02-01T04:14:06;9.73;;;2.63;;
37805;SDS011;25082;50.870;0.022;2023-02-01T04:16:32;6.80;;;2.70;;
37805;SDS011;25082;50.870;0.022;2023-02-01T04:18:58;6.22;;;2.35;;
37805;SDS011;25082;50.870;0.022;2023-02-01T04:21:27;9.63;;;3.28;;
37805;SDS011;25082;50.870;0.022;2023-02-01T04:23:53;10.57;;;2.75;;
37805;SDS011;25082;50.870;0.022;2023-02-01T04:26:20;5.93;;;2.13;;
37805;SDS011;25082;50.870;0.022;2023-02-01T04:28:46;7.93;;;2.63;;
37805;SDS011;25082;50.870;0.022;2023-02-01T04:31:15;7.75;;;2.63;;
37805;SDS011;25082;50.870;0.022;2023-02-01T04:33:42;9.30;;;2.92;;
37805;SDS011;25082;50.870;0.022;2023-02-01T04:36:08;9.35;;;3.15;;
37805;SDS011;25082;50.870;0.022;2023-02-01T04:38:34;9.10;;;2.53;;
37805;SDS011;25082;50.870;0.022;2023-02-01T04:41:00;8.00;;;2.80;;
37805;SDS011;25082;50.870;0.022;2023-02-01T04:43:26;9.52;;;3.75;;
37805;SDS011;25082;50.870;0.022;2023-02-01T04:45:52;10.75;;;2.53;;
37805;SDS011;25082;50.870;0.022;2023-02-01T04:48:19;6.82;;;2.47;;
37805;SDS011;25082;50.870;0.022;2023-02-01T04:50:46;8.95;;;2.80;;
37805;SDS011;25082;50.870;0.022;2023-02-01T04:53:15;6.85;;;2.70;;
37805;SDS011;25082;50.870;0.022;2023-02-01T04:55:42;9.45;;;3.17;;
37805;SDS011;25082;50.870;0.022;2023-02-01T04:58:09;9.45;;;2.65;;
37805;SDS011;25082;50.870;0.022;2023-02-01T05:00:35;6.07;;;3.25;;
37805;SDS011;25082;50.870;0.022;2023-02-01T05:03:01;10.27;;;2.47;;
37805;SDS011;25082;50.870;0.022;2023-02-01T05:05:27;8.18;;;2.90;;
37805;SDS011;25082;50.870;0.022;2023-02-01T05:07:54;7.47;;;2.38;;
37805;SDS011;25082;50.870;0.022;2023-02-01T05:10:19;10.00;;;2.90;;
37805;SDS011;25082;50.870;0.022;2023-02-01T05:12:46;7.18;;;2.85;;
37805;SDS011;25082;50.870;0.022;2023-02-01T05:15:30;9.13;;;3.42;;
37805;SDS011;25082;50.870;0.022;2023-02-01T05:17:56;9.30;;;2.50;;
37805;SDS011;25082;50.870;0.022;2023-02-01T05:20:22;6.70;;;2.38;;
37805;SDS011;25082;50.870;0.022;2023-02-01T05:22:48;6.20;;;2.50;;
37805;SDS011;25082;50.870;0.022;2023-02-01T05:25:14;7.75;;;3.03;;
37805;SDS011;25082;50.870;0.022;2023-02-01T05:27:39;9.15;;;2.97;;
37805;SDS011;25082;50.870;0.022;2023-02-01T05:30:06;12.50;;;3.63;;
37805;SDS011;25082;50.870;0.022;2023-02-01T05:32:32;11.57;;;3.22;;
37805;SDS011;25082;50.870;0.022;2023-02-01T05:34:58;10.45;;;3.08;;
37805;SDS011;25082;50.870;0.022;2023-02-01T05:37:23;11.07;;;3.15;;
37805;SDS011;25082;50.870;0.022;2023-02-01T05:39:50;9.82;;;2.88;;
37805;SDS011;25082;50.870;0.022;2023-02-01T05:42:15;10.60;;;2.67;;
37805;SDS011;25082;50.870;0.022;2023-02-01T05:44:41;8.07;;;2.72;;
37805;SDS011;25082;50.870;0.022;2023-02-01T05:47:07;10.18;;;2.97;;
37805;SDS011;25082;50.870;0.022;2023-02-01T05:49:33;8.55;;;3.10;;
37805;SDS011;25082;50.870;0.022;2023-02-01T05:51:59;7.28;;;2.42;;
37805;SDS011;25082;50.870;0.022;2023-02-01T05:54:25;8.15;;;3.03;;
37805;SDS011;25082;50.870;0.022;2023-02-01T05:56:51;7.22;;;2.72;;
37805;SDS011;25082;50.870;0.022;2023-02-01T05:59:16;8.52;;;3.03;;
37805;SDS011;25082;50.870;0.022;2023-02-01T06:01:42;6.15;;;2.20;;
37805;SDS011;25082;50.870;0.022;2023-02-01T06:04:08;11.20;;;2.78;;
37805;SDS011;25082;50.870;0.022;2023-02-01T06:06:34;9.68;;;3.03;;
37805;SDS011;25082;50.870;0.022;2023-02-01T06:08:59;10.35;;;3.03;;
37805;SDS011;25082;50.870;0.022;2023-02-01T06:11:26;10.98;;;3.08;;
37805;SDS011;25082;50.870;0.022;2023-02-01T06:13:52;7.00;;;2.15;;
37805;SDS011;25082;50.870;0.022;2023-02-01T06:16:20;10.30;;;3.25;;
37805;SDS011;25082;50.870;0.022;2023-02-01T06:18:46;9.07;;;2.60;;
37805;SDS011;25082;50.870;0.022;2023-02-01T06:21:12;9.60;;;3.28;;
37805;SDS011;25082;50.870;0.022;2023-02-01T06:23:49;6.85;;;2.33;;
37805;SDS011;25082;50.870;0.022;2023-02-01T06:26:15;9.05;;;3.10;;
37805;SDS011;25082;50.870;0.022;2023-02-01T06:28:44;7.60;;;2.63;;
37805;SDS011;25082;50.870;0.022;2023-02-01T06:31:10;5.68;;;2.00;;
37805;SDS011;25082;50.870;0.022;2023-02-01T06:33:36;9.38;;;2.78;;
37805;SDS011;25082;50.870;0.022;2023-02-01T06:36:04;10.52;;;2.65;;
37805;SDS011;25082;50.870;0.022;2023-02-01T06:38:31;5.70;;;1.90;;
37805;SDS011;25082;50.870;0.022;2023-02-01T06:40:59;8.30;;;2.50;;
37805;SDS011;25082;50.870;0.022;2023-02-01T06:43:27;7.93;;;3.00;;
37805;SDS011;25082;50.870;0.022;2023-02-01T06:45:58;7.22;;;2.35;;
37805;SDS011;25082;50.870;0.022;2023-02-01T06:48:26;11.07;;;2.42;;
37805;SDS011;25082;50.870;0.022;2023-02-01T06:50:52;9.13;;;3.20;;
37805;SDS011;25082;50.870;0.022;2023-02-01T06:53:17;9.63;;;3.22;;
37805;SDS011;25082;50.870;0.022;2023-02-01T06:55:53;7.15;;;2.83;;
37805;SDS011;25082;50.870;0.022;2023-02-01T06:58:19;8.27;;;2.38;;
37805;SDS011;25082;50.870;0.022;2023-02-01T07:00:45;6.55;;;2.97;;
37805;SDS011;25082;50.870;0.022;2023-02-01T07:03:11;11.95;;;3.35;;
37805;SDS011;25082;50.870;0.022;2023-02-01T07:05:37;5.53;;;2.25;;
37805;SDS011;25082;50.870;0.022;2023-02-01T07:08:03;8.90;;;2.42;;
37805;SDS011;25082;50.870;0.022;2023-02-01T07:10:28;7.22;;;2.30;;
37805;SDS011;25082;50.870;0.022;2023-02-01T07:12:56;10.40;;;2.83;;
37805;SDS011;25082;50.870;0.022;2023-02-01T07:15:22;8.63;;;3.03;;
37805;SDS011;25082;50.870;0.022;2023-02-01T07:17:48;12.90;;;3.03;;
37805;SDS011;25082;50.870;0.022;2023-02-01T07:20:14;6.63;;;2.25;;
37805;SDS011;25082;50.870;0.022;2023-02-01T07:22:40;7.72;;;2.70;;
37805;SDS011;25082;50.870;0.022;2023-02-01T07:25:06;6.45;;;2.50;;
37805;SDS011;25082;50.870;0.022;2023-02-01T07:27:35;8.43;;;2.78;;
37805;SDS011;25082;50.870;0.022;2023-02-01T07:30:02;6.20;;;2.45;;
37805;SDS011;25082;50.870;0.022;2023-02-01T07:32:29;6.82;;;2.22;;
37805;SDS011;25082;50.870;0.022;2023-02-01T07:34:55;7.88;;;2.70;;
37805;SDS011;25082;50.870;0.022;2023-02-01T07:37:22;7.85;;;2.63;;
37805;SDS011;25082;50.870;0.022;2023-02-01T07:39:49;9.68;;;2.78;;
37805;SDS011;25082;50.870;0.022;2023-02-01T07:42:16;7.70;;;2.95;;
37805;SDS011;25082;50.870;0.022;2023-02-01T07:44:41;7.10;;;2.28;;
37805;SDS011;25082;50.870;0.022;2023-02-01T07:47:07;7.97;;;2.28;;
37805;SDS011;25082;50.870;0.022;2023-02-01T07:49:33;10.52;;;2.80;;
37805;SDS011;25082;50.870;0.022;2023-02-01T07:51:59;8.40;;;2.33;;
37805;SDS011;25082;50.870;0.022;2023-02-01T07:54:24;8.60;;;2.45;;
37805;SDS011;25082;50.870;0.022;2023-02-01T07:56:50;9.00;;;2.80;;
37805;SDS011;25082;50.870;0.022;2023-02-01T07:59:16;10.32;;;2.85;;
37805;SDS011;25082;50.870;0.022;2023-02-01T08:01:42;9.63;;;2.10;;
37805;SDS011;25082;50.870;0.022;2023-02-01T08:04:08;7.65;;;2.70;;
37805;SDS011;25082;50.870;0.022;2023-02-01T08:06:37;8.65;;;2.78;;
37805;SDS011;25082;50.870;0.022;2023-02-01T08:09:03;8.45;;;2.70;;
37805;SDS011;25082;50.870;0.022;2023-02-01T08:11:29;6.90;;;2.90;;
37805;SDS011;25082;50.870;0.022;2023-02-01T08:13:56;7.43;;;2.47;;
37805;SDS011;25082;50.870;0.022;2023-02-01T08:16:22;7.75;;;2.63;;
37805;SDS011;25082;50.870;0.022;2023-02-01T08:18:49;7.68;;;2.97;;
37805;SDS011;25082;50.870;0.022;2023-02-01T08:21:17;5.72;;;2.25;;
37805;SDS011;25082;50.870;0.022;2023-02-01T08:23:45;9.52;;;2.75;;
37805;SDS011;25082;50.870;0.022;2023-02-01T08:26:12;9.90;;;2.70;;
37805;SDS011;25082;50.870;0.022;2023-02-01T08:28:42;6.30;;;2.05;;
37805;SDS011;25082;50.870;0.022;2023-02-01T08:31:12;7.15;;;2.65;;
37805;SDS011;25082;50.870;0.022;2023-02-01T08:33:40;5.75;;;2.15;;
37805;SDS011;25082;50.870;0.022;2023-02-01T08:36:08;8.18;;;2.15;;
37805;SDS011;25082;50.870;0.022;2023-02-01T08:38:35;10.35;;;2.70;;
37805;SDS011;25082;50.870;0.022;2023-02-01T08:41:06;10.77;;;2.40;;
37805;SDS011;25082;50.870;0.022;2023-02-01T08:43:32;8.73;;;2.40;;
37805;SDS011;25082;50.870;0.022;2023-02-01T08:45:58;8.23;;;2.35;;
37805;SDS011;25082;50.870;0.022;2023-02-01T08:48:24;7.68;;;2.30;;
37805;SDS011;25082;50.870;0.022;2023-02-01T08:50:50;7.75;;;2.30;;
37805;SDS011;25082;50.870;0.022;2023-02-01T08:53:15;7.13;;;3.03;;
37805;SDS011;25082;50.870;0.022;2023-02-01T08:55:41;6.05;;;2.45;;
37805;SDS011;25082;50.870;0.022;2023-02-01T08:58:07;6.28;;;2.25;;
37805;SDS011;25082;50.870;0.022;2023-02-01T09:00:32;8.68;;;2.35;;
37805;SDS011;25082;50.870;0.022;2023-02-01T09:02:58;7.20;;;2.67;;
37805;SDS011;25082;50.870;0.022;2023-02-01T09:05:24;8.63;;;2.13;;
37805;SDS011;25082;50.870;0.022;2023-02-01T09:07:52;22.65;;;4.85;;
37805;SDS011;25082;50.870;0.022;2023-02-01T09:10:18;16.83;;;3.55;;
37805;SDS011;25082;50.870;0.022;2023-02-01T09:12:43;14.25;;;3.08;;
37805;SDS011;25082;50.870;0.022;2023-02-01T09:15:09;19.95;;;3.65;;
37805;SDS011;25082;50.870;0.022;2023-02-01T09:17:36;15.90;;;3.78;;
37805;SDS011;25082;50.870;0.022;2023-02-01T09:20:02;21.33;;;3.35;;
37805;SDS011;25082;50.870;0.022;2023-02-01T09:22:28;9.32;;;3.15;;
37805;SDS011;25082;50.870;0.022;2023-02-01T09:24:54;14.60;;;3.15;;
37805;SDS011;25082;50.870;0.022;2023-02-01T09:27:20;18.90;;;3.90;;
37805;SDS011;25082;50.870;0.022;2023-02-01T09:29:46;10.60;;;3.17;;
37805;SDS011;25082;50.870;0.022;2023-02-01T09:32:17;17.88;;;3.30;;
37805;SDS011;25082;50.870;0.022;2023-02-01T09:34:47;11.63;;;2.88;;
37805;SDS011;25082;50.870;0.022;2023-02-01T09:37:14;11.52;;;3.17;;
37805;SDS011;25082;50.870;0.022;2023-02-01T09:39:40;12.32;;;3.15;;
37805;SDS011;25082;50.870;0.022;2023-02-01T09:48:19;13.18;;;3.40;;
37805;SDS011;25082;50.870;0.022;2023-02-01T09:50:49;9.32;;;2.80;;
37805;SDS011;25082;50.870;0.022;2023-02-01T09:53:27;12.73;;;3.20;;
37805;SDS011;25082;50.870;0.022;2023-02-01T09:56:04;12.77;;;3.00;;
37805;SDS011;25082;50.870;0.022;2023-02-01T09:58:40;8.82;;;2.45;;
37805;SDS011;25082;50.870;0.022;2023-02-01T10:01:21;8.05;;;3.30;;
37805;SDS011;25082;50.870;0.022;2023-02-01T10:03:50;9.98;;;3.25;;
37805;SDS011;25082;50.870;0.022;2023-02-01T10:06:27;22.75;;;3.78;;
37805;SDS011;25082;50.870;0.022;2023-02-01T10:09:05;14.68;;;4.07;;
37805;SDS011;25082;50.870;0.022;2023-02-01T10:14:34;14.38;;;3.45;;
37805;SDS011;25082;50.870;0.022;2023-02-01T10:19:49;12.30;;;2.97;;
37805;SDS011;25082;50.870;0.022;2023-02-01T10:24:58;14.27;;;3.42;;
37805;SDS011;25082;50.870;0.022;2023-02-01T10:27:38;16.38;;;3.90;;
37805;SDS011;25082;50.870;0.022;2023-02-01T10:30:17;15.00;;;3.08;;
37805;SDS011;25082;50.870;0.022;2023-02-01T10:33:00;11.80;;;3.75;;
37805;SDS011;25082;50.870;0.022;2023-02-01T10:35:39;9.80;;;3.05;;
37805;SDS011;25082;50.870;0.022;2023-02-01T10:38:09;14.43;;;2.88;;
37805;SDS011;25082;50.870;0.022;2023-02-01T10:40:43;12.10;;;3.45;;
37805;SDS011;25082;50.870;0.022;2023-02-01T10:43:09;13.25;;;3.83;;
37805;SDS011;25082;50.870;0.022;2023-02-01T10:45:35;14.10;;;3.88;;
37805;SDS011;25082;50.870;0.022;2023-02-01T10:48:04;13.52;;;3.17;;
37805;SDS011;25082;50.870;0.022;2023-02-01T10:53:31;10.43;;;3.42;;
37805;SDS011;25082;50.870;0.022;2023-02-01T10:56:08;7.68;;;2.72;;
37805;SDS011;25082;50.870;0.022;2023-02-01T10:58:36;7.90;;;2.70;;
37805;SDS011;25082;50.870;0.022;2023-02-01T11:01:19;9.07;;;2.63;;
37805;SDS011;25082;50.870;0.022;2023-02-01T11:03:56;8.75;;;2.63;;
37805;SDS011;25082;50.870;0.022;2023-02-01T11:06:36;11.50;;;2.92;;
37805;SDS011;25082;50.870;0.022;2023-02-01T11:11:54;9.13;;;2.75;;
37805;SDS011;25082;50.870;0.022;2023-02-01T11:16:51;8.23;;;2.15;;
37805;SDS011;25082;50.870;0.022;2023-02-01T11:19:23;10.50;;;2.80;;
37805;SDS011;25082;50.870;0.022;2023-02-01T11:21:49;10.10;;;2.90;;
37805;SDS011;25082;50.870;0.022;2023-02-01T11:24:24;6.72;;;2.42;;
37805;SDS011;25082;50.870;0.022;2023-02-01T11:26:57;10.15;;;3.03;;
37805;SDS011;25082;50.870;0.022;2023-02-01T11:29:27;8.73;;;2.65;;
37805;SDS011;25082;50.870;0.022;2023-02-01T11:32:01;9.50;;;3.03;;
37805;SDS011;25082;50.870;0.022;2023-02-01T11:34:31;9.60;;;2.83;;
37805;SDS011;25082;50.870;0.022;2023-02-01T11:37:05;8.60;;;2.80;;
37805;SDS011;25082;50.870;0.022;2023-02-01T11:39:57;8.75;;;2.40;;
37805;SDS011;25082;50.870;0.022;2023-02-01T11:42:25;8.45;;;2.45;;
37805;SDS011;25082;50.870;0.022;2023-02-01T11:45:07;8.35;;;2.58;;
37805;SDS011;25082;50.870;0.022;2023-02-01T11:47:46;7.93;;;2.33;;
37805;SDS011;25082;50.870;0.022;2023-02-01T11:50:18;9.05;;;3.08;;
37805;SDS011;25082;50.870;0.022;2023-02-01T11:58:31;11.80;;;2.85;;
37805;SDS011;25082;50.870;0.022;2023-02-01T12:06:27;8.57;;;2.92;;
37805;SDS011;25082;50.870;0.022;2023-02-01T12:14:25;6.65;;;2.63;;
37805;SDS011;25082;50.870;0.022;2023-02-01T12:27:56;10.82;;;3.22;;
37805;SDS011;25082;50.870;0.022;2023-02-01T12:44:06;10.77;;;2.60;;
37805;SDS011;25082;50.870;0.022;2023-02-01T12:46:46;8.57;;;2.22;;
37805;SDS011;25082;50.870;0.022;2023-02-01T12:49:17;9.68;;;2.95;;
37805;SDS011;25082;50.870;0.022;2023-02-01T12:51:50;8.35;;;2.47;;
37805;SDS011;25082;50.870;0.022;2023-02-01T12:54:27;9.00;;;2.78;;
37805;SDS011;25082;50.870;0.022;2023-02-01T12:57:37;9.95;;;2.47;;
37805;SDS011;25082;50.870;0.022;2023-02-01T13:05:43;10.25;;;2.60;;
37805;SDS011;25082;50.870;0.022;2023-02-01T13:08:17;8.23;;;3.03;;
37805;SDS011;25082;50.870;0.022;2023-02-01T13:10:52;12.90;;;3.30;;
37805;SDS011;25082;50.870;0.022;2023-02-01T13:18:35;7.80;;;2.47;;
37805;SDS011;25082;50.870;0.022;2023-02-01T13:24:06;12.70;;;2.40;;
37805;SDS011;25082;50.870;0.022;2023-02-01T13:26:48;11.95;;;3.28;;
37805;SDS011;25082;50.870;0.022;2023-02-01T13:29:13;13.27;;;3.00;;
37805;SDS011;25082;50.870;0.022;2023-02-01T13:45:49;9.20;;;3.05;;
37805;SDS011;25082;50.870;0.022;2023-02-01T13:48:21;12.38;;;2.88;;
37805;SDS011;25082;50.870;0.022;2023-02-01T13:50:55;10.50;;;2.83;;
37805;SDS011;25082;50.870;0.022;2023-02-01T13:53:23;7.75;;;2.70;;
37805;SDS011;25082;50.870;0.022;2023-02-01T13:55:59;10.63;;;2.45;;
37805;SDS011;25082;50.870;0.022;2023-02-01T13:58:39;6.00;;;2.63;;
37805;SDS011;25082;50.870;0.022;2023-02-01T14:03:51;7.70;;;2.17;;
37805;SDS011;25082;50.870;0.022;2023-02-01T14:19:25;8.02;;;2.50;;
37805;SDS011;25082;50.870;0.022;2023-02-01T14:21:54;6.47;;;2.40;;
37805;SDS011;25082;50.870;0.022;2023-02-01T14:26:55;8.30;;;2.20;;
37805;SDS011;25082;50.870;0.022;2023-02-01T14:29:25;8.15;;;2.78;;
37805;SDS011;25082;50.870;0.022;2023-02-01T14:32:04;11.57;;;2.85;;
37805;SDS011;25082;50.870;0.022;2023-02-01T14:34:52;10.93;;;3.17;;
37805;SDS011;25082;50.870;0.022;2023-02-01T14:47:47;10.00;;;2.75;;
37805;SDS011;25082;50.870;0.022;2023-02-01T15:01:15;7.88;;;2.10;;
37805;SDS011;25082;50.870;0.022;2023-02-01T15:06:29;8.13;;;2.17;;
37805;SDS011;25082;50.870;0.022;2023-02-01T15:09:04;7.55;;;2.50;;
37805;SDS011;25082;50.870;0.022;2023-02-01T15:12:45;5.57;;;2.30;;
37805;SDS011;25082;50.870;0.022;2023-02-01T15:17:42;6.15;;;1.88;;
37805;SDS011;25082;50.870;0.022;2023-02-01T15:20:37;12.02;;;2.50;;
37805;SDS011;25082;50.870;0.022;2023-02-01T15:23:03;11.77;;;2.22;;
37805;SDS011;25082;50.870;0.022;2023-02-01T15:25:34;5.03;;;1.70;;
37805;SDS011;25082;50.870;0.022;2023-02-01T15:28:03;7.82;;;2.20;;
37805;SDS011;25082;50.870;0.022;2023-02-01T15:30:32;10.20;;;2.45;;
37805;SDS011;25082;50.870;0.022;2023-02-01T15:33:04;6.78;;;1.70;;
37805;SDS011;25082;50.870;0.022;2023-02-01T15:38:18;7.05;;;2.60;;
37805;SDS011;25082;50.870;0.022;2023-02-01T15:41:03;6.20;;;2.10;;
37805;SDS011;25082;50.870;0.022;2023-02-01T15:46:33;9.35;;;2.05;;
37805;SDS011;25082;50.870;0.022;2023-02-01T15:49:02;8.45;;;2.58;;
37805;SDS011;25082;50.870;0.022;2023-02-01T15:51:30;8.10;;;2.25;;
37805;SDS011;25082;50.870;0.022;2023-02-01T15:54:12;9.98;;;2.22;;
37805;SDS011;25082;50.870;0.022;2023-02-01T15:56:47;5.82;;;1.90;;
37805;SDS011;25082;50.870;0.022;2023-02-01T15:59:19;7.72;;;2.42;;
37805;SDS011;25082;50.870;0.022;2023-02-01T16:01:47;5.68;;;2.03;;
37805;SDS011;25082;50.870;0.022;2023-02-01T16:04:18;10.20;;;2.63;;
37805;SDS011;25082;50.870;0.022;2023-02-01T16:06:47;7.82;;;2.13;;
37805;SDS011;25082;50.870;0.022;2023-02-01T16:09:14;6.18;;;1.67;;
37805;SDS011;25082;50.870;0.022;2023-02-01T16:11:53;10.38;;;2.25;;
37805;SDS011;25082;50.870;0.022;2023-02-01T16:14:20;9.70;;;2.15;;
37805;SDS011;25082;50.870;0.022;2023-02-01T16:16:46;5.47;;;2.15;;
37805;SDS011;25082;50.870;0.022;2023-02-01T16:19:12;8.20;;;2.53;;
37805;SDS011;25082;50.870;0.022;2023-02-01T16:21:38;6.93;;;2.13;;
37805;SDS011;25082;50.870;0.022;2023-02-01T16:24:03;6.68;;;2.15;;
37805;SDS011;25082;50.870;0.022;2023-02-01T16:26:30;6.75;;;2.15;;
37805;SDS011;25082;50.870;0.022;2023-02-01T16:28:57;7.40;;;2.65;;
37805;SDS011;25082;50.870;0.022;2023-02-01T16:31:30;9.70;;;2.40;;
37805;SDS011;25082;50.870;0.022;2023-02-01T16:33:59;7.63;;;3.08;;
37805;SDS011;25082;50.870;0.022;2023-02-01T16:36:24;6.80;;;2.33;;
37805;SDS011;25082;50.870;0.022;2023-02-01T16:38:52;7.75;;;2.95;;
37805;SDS011;25082;50.870;0.022;2023-02-01T16:41:20;7.95;;;2.95;;
37805;SDS011;25082;50.870;0.022;2023-02-01T16:43:51;7.05;;;3.08;;
37805;SDS011;25082;50.870;0.022;2023-02-01T16:46:19;12.05;;;3.40;;
37805;SDS011;25082;50.870;0.022;2023-02-01T16:48:56;8.07;;;3.45;;
37805;SDS011;25082;50.870;0.022;2023-02-01T16:51:25;10.00;;;3.30;;
37805;SDS011;25082;50.870;0.022;2023-02-01T16:53:57;8.38;;;3.67;;
37805;SDS011;25082;50.870;0.022;2023-02-01T16:56:33;7.63;;;3.35;;
37805;SDS011;25082;50.870;0.022;2023-02-01T16:59:00;8.48;;;3.13;;
37805;SDS011;25082;50.870;0.022;2023-02-01T17:01:26;12.65;;;3.75;;
37805;SDS011;25082;50.870;0.022;2023-02-01T17:03:52;13.50;;;3.75;;
37805;SDS011;25082;50.870;0.022;2023-02-01T17:06:19;10.73;;;4.00;;
37805;SDS011;25082;50.870;0.022;2023-02-01T17:08:49;11.07;;;4.00;;
37805;SDS011;25082;50.870;0.022;2023-02-01T17:11:23;8.55;;;3.30;;
37805;SDS011;25082;50.870;0.022;2023-02-01T17:13:49;14.77;;;4.05;;
37805;SDS011;25082;50.870;0.022;2023-02-01T17:18:44;10.25;;;3.78;;
37805;SDS011;25082;50.870;0.022;2023-02-01T17:21:15;9.97;;;3.80;;
37805;SDS011;25082;50.870;0.022;2023-02-01T17:23:41;14.27;;;4.07;;
37805;SDS011;25082;50.870;0.022;2023-02-01T17:26:08;8.23;;;3.30;;
37805;SDS011;25082;50.870;0.022;2023-02-01T17:28:34;11.40;;;3.30;;
37805;SDS011;25082;50.870;0.022;2023-02-01T17:31:00;12.52;;;3.75;;
37805;SDS011;25082;50.870;0.022;2023-02-01T17:33:33;17.83;;;4.60;;
37805;SDS011;25082;50.870;0.022;2023-02-01T17:36:01;12.25;;;4.55;;
37805;SDS011;25082;50.870;0.022;2023-02-01T17:38:28;12.18;;;4.18;;
37805;SDS011;25082;50.870;0.022;2023-02-01T17:40:54;14.02;;;4.32;;
37805;SDS011;25082;50.870;0.022;2023-02-01T17:43:22;10.85;;;4.82;;
37805;SDS011;25082;50.870;0.022;2023-02-01T17:45:54;10.65;;;4.72;;
37805;SDS011;25082;50.870;0.022;2023-02-01T17:48:36;10.65;;;4.18;;
37805;SDS011;25082;50.870;0.022;2023-02-01T17:51:03;13.52;;;4.47;;
37805;SDS011;25082;50.870;0.022;2023-02-01T17:53:30;11.73;;;5.43;;
37805;SDS011;25082;50.870;0.022;2023-02-01T17:55:58;9.75;;;4.32;;
37805;SDS011;25082;50.870;0.022;2023-02-01T17:58:24;13.95;;;4.20;;